createdAt,value
2017-06-30T00:00:50.736Z,15.7
2017-06-30T00:01:49.452Z,15.8
2017-06-30T00:02:48.672Z,15.8
2017-06-30T00:03:47.888Z,15.7
2017-06-30T00:04:47.242Z,15.7
2017-06-30T00:05:46.218Z,15.7
2017-06-30T00:06:45.477Z,15.7
2017-06-30T00:07:45.195Z,15.7
2017-06-30T00:08:44.418Z,15.7
2017-06-30T00:09:43.625Z,15.7
2017-06-30T00:10:43.689Z,15.7
2017-06-30T00:11:41.921Z,15.6
2017-06-30T00:13:40.709Z,15.6
2017-06-30T00:14:39.941Z,15.6
2017-06-30T00:15:39.169Z,15.7
2017-06-30T00:16:38.579Z,15.8
2017-06-30T00:17:37.669Z,15.7
2017-06-30T00:18:36.766Z,15.7
2017-06-30T00:19:36.495Z,15.6
2017-06-30T00:20:35.722Z,15.7
2017-06-30T00:21:34.941Z,15.7
2017-06-30T00:22:34.295Z,15.7
2017-06-30T00:23:33.530Z,15.7
2017-06-30T00:24:32.753Z,15.6
2017-06-30T00:25:31.855Z,15.6
2017-06-30T00:26:31.047Z,15.6
2017-06-30T00:27:30.283Z,15.6
2017-06-30T00:28:30.252Z,15.6
2017-06-30T00:29:28.849Z,15.6
2017-06-30T00:31:27.363Z,15.6
2017-06-30T00:32:26.970Z,15.5
2017-06-30T00:33:26.188Z,15.5
2017-06-30T00:34:25.665Z,15.6
2017-06-30T00:36:23.767Z,15.5
2017-06-30T00:37:23.497Z,15.5
2017-06-30T00:38:22.710Z,15.5
2017-06-30T00:39:21.933Z,15.5
2017-06-30T00:40:21.445Z,15.6
2017-06-30T00:41:20.160Z,15.5
2017-06-30T00:42:19.886Z,15.6
2017-06-30T00:43:19.095Z,15.5
2017-06-30T00:44:18.897Z,15.5
2017-06-30T00:45:17.614Z,15.5
2017-06-30T00:46:17.097Z,15.5
2017-06-30T00:47:15.689Z,15.5
2017-06-30T00:49:14.559Z,15.5
2017-06-30T00:50:14.051Z,15.5
2017-06-30T00:51:13.272Z,15.5
2017-06-30T00:52:12.505Z,15.5
2017-06-30T00:53:11.713Z,15.5
2017-06-30T00:54:10.932Z,15.5
2017-06-30T00:55:10.151Z,15.5
2017-06-30T00:56:09.365Z,15.5
2017-06-30T00:57:08.570Z,15.5
2017-06-30T00:59:07.430Z,15.5
2017-06-30T01:00:06.526Z,15.5
2017-06-30T01:01:05.751Z,15.5
2017-06-30T01:02:04.763Z,15.5
2017-06-30T01:03:04.486Z,15.5
2017-06-30T01:04:03.705Z,15.5
2017-06-30T01:05:03.095Z,15.5
2017-06-30T01:06:02.192Z,15.5
2017-06-30T01:07:01.417Z,15.5
2017-06-30T01:08:00.633Z,15.5
2017-06-30T01:08:59.854Z,15.5
2017-06-30T01:09:59.194Z,15.4
2017-06-30T01:10:59.107Z,15.4
2017-06-30T01:11:57.810Z,15.5
2017-06-30T01:12:57.028Z,15.4
2017-06-30T01:13:56.230Z,15.5
2017-06-30T01:14:55.457Z,15.5
2017-06-30T01:15:25.861Z,15.5
2017-06-30T01:15:56.982Z,15.5
2017-06-30T01:16:27.566Z,15.5
2017-06-30T01:16:57.487Z,15.5
2017-06-30T01:17:28.016Z,15.5
2017-06-30T01:18:52.912Z,15.5
2017-06-30T01:19:52.128Z,15.6
2017-06-30T01:20:51.348Z,15.6
2017-06-30T01:21:50.826Z,15.6
2017-06-30T01:22:50.128Z,15.6
2017-06-30T01:23:48.839Z,15.6
2017-06-30T01:24:48.568Z,15.6
2017-06-30T01:25:47.795Z,15.6
2017-06-30T01:26:47.018Z,15.6
2017-06-30T01:27:46.484Z,15.6
2017-06-30T01:28:45.199Z,15.6
2017-06-30T01:29:44.794Z,15.6
2017-06-30T01:30:44.093Z,15.6
2017-06-30T01:31:43.314Z,15.6
2017-06-30T01:32:42.533Z,15.6
2017-06-30T01:33:41.914Z,15.6
2017-06-30T01:34:41.010Z,15.6
2017-06-30T01:35:39.999Z,15.6
2017-06-30T01:36:39.728Z,15.6
2017-06-30T01:37:10.744Z,15.6
2017-06-30T01:37:40.785Z,15.6
2017-06-30T01:38:11.315Z,15.6
2017-06-30T01:38:42.288Z,15.6
2017-06-30T01:39:12.197Z,15.6
2017-06-30T01:40:36.459Z,15.6
2017-06-30T01:41:35.674Z,15.6
2017-06-30T01:42:35.406Z,15.6
2017-06-30T01:44:34.141Z,15.6
2017-06-30T01:45:32.852Z,15.6
2017-06-30T01:46:32.073Z,15.6
2017-06-30T01:47:31.294Z,15.6
2017-06-30T01:48:31.010Z,15.6
2017-06-30T01:49:30.225Z,15.6
2017-06-30T01:50:29.622Z,15.6
2017-06-30T01:51:28.349Z,15.6
2017-06-30T01:52:28.064Z,15.6
2017-06-30T01:53:27.160Z,15.6
2017-06-30T01:54:26.375Z,15.5
2017-06-30T01:55:25.787Z,15.6
2017-06-30T01:55:56.567Z,15.6
2017-06-30T01:56:26.591Z,15.6
2017-06-30T01:56:57.686Z,15.6
2017-06-30T01:58:23.579Z,15.5
2017-06-30T01:59:22.789Z,15.5
2017-06-30T02:01:21.639Z,15.6
2017-06-30T02:02:20.341Z,15.6
2017-06-30T02:03:19.569Z,15.5
2017-06-30T02:04:19.295Z,15.6
2017-06-30T02:05:18.386Z,15.6
2017-06-30T02:06:17.609Z,15.6
2017-06-30T02:07:16.971Z,15.6
2017-06-30T02:08:16.186Z,15.6
2017-06-30T02:09:15.399Z,15.6
2017-06-30T02:11:14.006Z,15.6
2017-06-30T02:12:13.307Z,15.6
2017-06-30T02:13:12.785Z,15.6
2017-06-30T02:14:11.513Z,15.6
2017-06-30T02:15:10.734Z,15.6
2017-06-30T02:16:10.456Z,15.6
2017-06-30T02:17:09.680Z,15.6
2017-06-30T02:18:08.910Z,15.6
2017-06-30T02:19:08.391Z,15.6
2017-06-30T02:20:07.509Z,15.6
2017-06-30T02:21:07.178Z,15.6
2017-06-30T02:22:05.776Z,15.6
2017-06-30T02:23:05.578Z,15.6
2017-06-30T02:24:04.230Z,15.6
2017-06-30T02:25:03.935Z,15.6
2017-06-30T02:26:03.162Z,15.6
2017-06-30T02:27:02.393Z,15.6
2017-06-30T02:28:01.488Z,15.6
2017-06-30T02:29:00.707Z,15.6
2017-06-30T02:29:59.924Z,15.6
2017-06-30T02:30:59.435Z,15.6
2017-06-30T02:31:58.657Z,15.6
2017-06-30T02:32:57.868Z,15.6
2017-06-30T02:33:57.084Z,15.6
2017-06-30T02:34:56.314Z,15.6
2017-06-30T02:35:55.545Z,15.6
2017-06-30T02:36:55.023Z,15.6
2017-06-30T02:37:54.315Z,15.6
2017-06-30T02:38:53.581Z,15.6
2017-06-30T02:39:52.795Z,15.6
2017-06-30T02:40:52.009Z,15.6
2017-06-30T02:41:51.271Z,15.6
2017-06-30T02:42:50.752Z,15.6
2017-06-30T02:43:49.977Z,15.6
2017-06-30T02:44:49.204Z,15.6
2017-06-30T02:45:48.443Z,15.6
2017-06-30T02:46:47.559Z,15.6
2017-06-30T02:47:47.343Z,15.5
2017-06-30T02:48:46.305Z,15.6
2017-06-30T02:49:45.988Z,15.5
2017-06-30T02:50:44.585Z,15.5
2017-06-30T02:51:43.781Z,15.5
2017-06-30T02:52:42.990Z,15.5
2017-06-30T02:53:42.197Z,15.5
2017-06-30T02:54:42.729Z,15.5
2017-06-30T02:55:40.935Z,15.5
2017-06-30T02:56:40.130Z,15.5
2017-06-30T02:57:39.346Z,15.5
2017-06-30T02:58:38.558Z,15.5
2017-06-30T02:59:37.773Z,15.5
2017-06-30T03:00:37.739Z,15.5
2017-06-30T03:01:36.322Z,15.5
2017-06-30T03:02:36.033Z,15.5
2017-06-30T03:03:34.920Z,15.5
2017-06-30T03:04:34.518Z,15.5
2017-06-30T03:05:33.717Z,15.5
2017-06-30T03:06:33.196Z,15.5
2017-06-30T03:07:32.395Z,15.5
2017-06-30T03:08:31.361Z,15.5
2017-06-30T03:09:30.838Z,15.6
2017-06-30T03:10:30.041Z,15.6
2017-06-30T03:11:29.263Z,15.6
2017-06-30T03:12:28.602Z,15.5
2017-06-30T03:13:27.690Z,15.6
2017-06-30T03:14:26.776Z,15.5
2017-06-30T03:15:26.491Z,15.6
2017-06-30T03:16:25.691Z,15.5
2017-06-30T03:17:24.765Z,15.5
2017-06-30T03:18:24.219Z,15.5
2017-06-30T03:19:23.467Z,15.5
2017-06-30T03:20:22.681Z,15.5
2017-06-30T03:21:21.886Z,15.5
2017-06-30T03:23:21.059Z,15.5
2017-06-30T03:24:20.088Z,15.5
2017-06-30T03:25:18.797Z,15.5
2017-06-30T03:26:17.997Z,15.5
2017-06-30T03:27:17.280Z,15.5
2017-06-30T03:28:16.985Z,15.5
2017-06-30T03:29:16.189Z,15.5
2017-06-30T03:30:15.611Z,15.5
2017-06-30T03:31:14.308Z,15.6
2017-06-30T03:32:14.015Z,15.6
2017-06-30T03:34:12.482Z,15.5
2017-06-30T03:35:11.687Z,15.6
2017-06-30T03:36:11.145Z,15.6
2017-06-30T03:37:10.355Z,15.6
2017-06-30T03:38:09.216Z,15.6
2017-06-30T03:39:08.820Z,15.6
2017-06-30T03:40:08.025Z,15.6
2017-06-30T03:41:07.151Z,15.6
2017-06-30T03:42:06.619Z,15.6
2017-06-30T03:43:05.824Z,15.6
2017-06-30T03:44:04.915Z,15.6
2017-06-30T03:45:04.576Z,15.6
2017-06-30T03:46:03.785Z,15.6
2017-06-30T03:47:02.881Z,15.6
2017-06-30T03:48:02.229Z,15.6
2017-06-30T03:49:02.014Z,15.6
2017-06-30T03:50:00.715Z,15.6
2017-06-30T03:50:59.911Z,15.6
2017-06-30T03:51:59.214Z,15.6
2017-06-30T03:52:58.343Z,15.6
2017-06-30T03:53:57.851Z,15.6
2017-06-30T03:54:27.865Z,15.6
2017-06-30T03:54:58.941Z,15.6
2017-06-30T03:55:28.844Z,15.6
2017-06-30T03:56:55.746Z,15.6
2017-06-30T03:57:54.838Z,15.6
2017-06-30T03:58:54.039Z,15.6
2017-06-30T03:59:53.544Z,15.6
2017-06-30T04:01:51.636Z,15.6
2017-06-30T04:02:51.354Z,15.6
2017-06-30T04:03:50.559Z,15.6
2017-06-30T04:04:50.334Z,15.6
2017-06-30T04:05:49.332Z,15.6
2017-06-30T04:06:48.033Z,15.6
2017-06-30T04:07:47.250Z,15.6
2017-06-30T04:08:46.994Z,15.6
2017-06-30T04:09:46.209Z,15.5
2017-06-30T04:10:45.428Z,15.5
2017-06-30T04:11:44.892Z,15.5
2017-06-30T04:12:43.595Z,15.5
2017-06-30T04:13:43.869Z,15.5
2017-06-30T04:14:42.448Z,15.5
2017-06-30T04:15:13.053Z,15.5
2017-06-30T04:15:43.450Z,15.5
2017-06-30T04:16:41.222Z,15.5
2017-06-30T04:17:40.188Z,15.5
2017-06-30T04:18:39.386Z,15.5
2017-06-30T04:19:38.585Z,15.5
2017-06-30T04:20:37.794Z,15.5
2017-06-30T04:21:36.993Z,15.5
2017-06-30T04:22:36.711Z,15.6
2017-06-30T04:24:35.172Z,15.6
2017-06-30T04:25:34.378Z,15.6
2017-06-30T04:26:33.575Z,15.6
2017-06-30T04:27:32.763Z,15.6
2017-06-30T04:28:31.963Z,15.6
2017-06-30T04:29:31.173Z,15.6
2017-06-30T04:30:30.518Z,15.6
2017-06-30T04:31:29.727Z,15.7
2017-06-30T04:32:28.938Z,15.7
2017-06-30T04:33:28.531Z,15.6
2017-06-30T04:34:28.905Z,15.6
2017-06-30T04:35:27.096Z,15.7
2017-06-30T04:36:26.563Z,15.7
2017-06-30T04:37:25.268Z,15.7
2017-06-30T04:38:24.978Z,15.7
2017-06-30T04:39:24.189Z,15.7
2017-06-30T04:40:23.154Z,15.7
2017-06-30T04:41:22.733Z,15.7
2017-06-30T04:42:22.190Z,15.7
2017-06-30T04:43:20.648Z,15.7
2017-06-30T04:44:20.361Z,15.7
2017-06-30T04:45:19.621Z,15.7
2017-06-30T04:46:18.836Z,15.7
2017-06-30T04:47:17.921Z,15.7
2017-06-30T04:48:17.883Z,15.7
2017-06-30T04:49:16.851Z,15.7
2017-06-30T04:50:15.934Z,15.8
2017-06-30T04:51:15.033Z,15.7
2017-06-30T04:52:14.744Z,15.7
2017-06-30T04:53:13.950Z,15.7
2017-06-30T04:54:13.422Z,15.8
2017-06-30T04:55:12.116Z,15.8
2017-06-30T04:56:11.821Z,15.8
2017-06-30T04:57:11.037Z,15.8
2017-06-30T04:58:10.815Z,15.8
2017-06-30T04:59:09.413Z,15.8
2017-06-30T05:00:08.647Z,15.8
2017-06-30T05:01:07.742Z,15.8
2017-06-30T05:02:07.456Z,15.8
2017-06-30T05:03:06.661Z,15.8
2017-06-30T05:04:05.744Z,15.8
2017-06-30T05:05:04.944Z,15.8
2017-06-30T05:06:04.399Z,15.8
2017-06-30T05:07:03.485Z,15.8
2017-06-30T05:08:03.077Z,15.8
2017-06-30T05:09:02.334Z,15.8
2017-06-30T05:10:01.542Z,15.8
2017-06-30T05:11:00.625Z,15.8
2017-06-30T05:12:00.098Z,15.8
2017-06-30T05:12:59.300Z,15.8
2017-06-30T05:14:57.777Z,15.8
2017-06-30T05:15:56.988Z,15.8
2017-06-30T05:16:56.189Z,15.8
2017-06-30T05:17:55.282Z,15.8
2017-06-30T05:18:54.989Z,15.8
2017-06-30T05:19:54.200Z,15.8
2017-06-30T05:20:53.395Z,15.8
2017-06-30T05:21:52.605Z,15.8
2017-06-30T05:22:51.806Z,15.9
2017-06-30T05:23:51.273Z,15.8
2017-06-30T05:24:50.473Z,15.8
2017-06-30T05:25:49.679Z,15.8
2017-06-30T05:26:48.764Z,15.8
2017-06-30T05:27:48.474Z,15.8
2017-06-30T05:28:47.448Z,15.8
2017-06-30T05:29:46.904Z,15.8
2017-06-30T05:30:46.184Z,15.9
2017-06-30T05:31:16.587Z,15.9
2017-06-30T05:32:44.366Z,15.9
2017-06-30T05:33:44.077Z,15.9
2017-06-30T05:34:43.294Z,15.9
2017-06-30T05:35:42.627Z,16
2017-06-30T05:37:40.719Z,16
2017-06-30T05:38:40.433Z,16
2017-06-30T05:39:39.640Z,16
2017-06-30T05:40:38.725Z,16
2017-06-30T05:41:38.180Z,16
2017-06-30T05:42:37.390Z,16
2017-06-30T05:43:36.590Z,16
2017-06-30T05:44:35.797Z,16.1
2017-06-30T05:45:35.002Z,16.1
2017-06-30T05:46:34.205Z,16
2017-06-30T05:47:34.158Z,16.1
2017-06-30T05:48:32.865Z,16.1
2017-06-30T05:49:32.133Z,16.1
2017-06-30T05:50:31.360Z,16.1
2017-06-30T05:51:30.565Z,16.1
2017-06-30T05:52:29.917Z,16.2
2017-06-30T05:53:29.256Z,16.2
2017-06-30T05:54:28.466Z,16.2
2017-06-30T05:55:27.561Z,16.2
2017-06-30T05:56:27.263Z,16.2
2017-06-30T05:58:25.861Z,16.1
2017-06-30T05:59:25.328Z,16.2
2017-06-30T06:00:24.426Z,16.2
2017-06-30T06:01:23.642Z,16.2
2017-06-30T06:02:22.858Z,16.2
2017-06-30T06:03:22.068Z,16.1
2017-06-30T06:04:21.272Z,16.3
2017-06-30T06:05:21.287Z,16.3
2017-06-30T06:06:19.991Z,16.3
2017-06-30T06:07:19.188Z,16.3
2017-06-30T06:08:18.394Z,16.3
2017-06-30T06:09:17.489Z,16.3
2017-06-30T06:10:17.079Z,16.3
2017-06-30T06:11:16.413Z,16.3
2017-06-30T06:12:15.505Z,16.3
2017-06-30T06:13:15.267Z,16.3
2017-06-30T06:14:13.840Z,16.3
2017-06-30T06:15:13.551Z,16.4
2017-06-30T06:16:12.764Z,16.3
2017-06-30T06:17:12.218Z,16.3
2017-06-30T06:18:11.425Z,16.3
2017-06-30T06:19:10.633Z,16.3
2017-06-30T06:20:09.904Z,16.3
2017-06-30T06:21:09.111Z,16.3
2017-06-30T06:22:08.318Z,16.3
2017-06-30T06:23:07.771Z,16.3
2017-06-30T06:24:06.971Z,16.4
2017-06-30T06:25:06.060Z,16.4
2017-06-30T06:26:05.265Z,16.4
2017-06-30T06:27:04.862Z,16.3
2017-06-30T06:28:04.072Z,16.3
2017-06-30T06:29:03.539Z,16.3
2017-06-30T06:30:03.306Z,16.4
2017-06-30T06:31:01.955Z,16.4
2017-06-30T06:32:01.052Z,16.4
2017-06-30T06:33:00.338Z,16.4
2017-06-30T06:33:59.932Z,16.5
2017-06-30T06:34:59.384Z,16.5
2017-06-30T06:35:58.073Z,16.5
2017-06-30T06:36:57.783Z,16.5
2017-06-30T06:37:56.868Z,16.5
2017-06-30T06:38:55.950Z,16.5
2017-06-30T06:39:55.664Z,16.6
2017-06-30T06:40:26.197Z,16.6
2017-06-30T06:40:56.225Z,16.5
2017-06-30T06:41:26.630Z,16.5
2017-06-30T06:42:53.516Z,16.5
2017-06-30T06:43:52.800Z,16.5
2017-06-30T06:44:52.051Z,16.5
2017-06-30T06:45:51.401Z,16.5
2017-06-30T06:46:50.599Z,16.5
2017-06-30T06:47:49.679Z,16.5
2017-06-30T06:48:48.768Z,16.5
2017-06-30T06:49:48.475Z,16.5
2017-06-30T06:50:47.442Z,16.6
2017-06-30T06:51:46.894Z,16.5
2017-06-30T06:52:45.744Z,16.5
2017-06-30T06:53:45.208Z,16.6
2017-06-30T06:55:44.185Z,16.6
2017-06-30T06:56:43.327Z,16.6
2017-06-30T06:57:42.784Z,16.6
2017-06-30T06:58:41.999Z,16.6
2017-06-30T06:59:41.156Z,16.7
2017-06-30T07:00:40.369Z,16.7
2017-06-30T07:01:40.147Z,16.7
2017-06-30T07:02:38.858Z,16.7
2017-06-30T07:03:38.331Z,16.7
2017-06-30T07:05:36.929Z,16.7
2017-06-30T07:06:36.147Z,16.7
2017-06-30T07:07:35.236Z,16.8
2017-06-30T07:08:34.819Z,16.8
2017-06-30T07:09:34.272Z,16.8
2017-06-30T07:10:33.257Z,16.9
2017-06-30T07:11:32.478Z,17
2017-06-30T07:12:31.685Z,17
2017-06-30T07:13:31.272Z,16.9
2017-06-30T07:14:30.499Z,17
2017-06-30T07:15:29.826Z,17
2017-06-30T07:16:28.910Z,17
2017-06-30T07:17:28.004Z,17.1
2017-06-30T07:18:27.610Z,17.1
2017-06-30T07:19:26.811Z,17.1
2017-06-30T07:20:26.024Z,17.2
2017-06-30T07:21:25.992Z,17.2
2017-06-30T07:22:24.692Z,17.1
2017-06-30T07:23:23.909Z,17.1
2017-06-30T07:24:22.877Z,17.2
2017-06-30T07:25:22.582Z,17.1
2017-06-30T07:26:21.792Z,17.2
2017-06-30T07:27:21.314Z,17.1
2017-06-30T07:28:20.518Z,17.1
2017-06-30T07:29:19.736Z,17.1
2017-06-30T07:30:18.944Z,17.1
2017-06-30T07:31:18.662Z,17.1
2017-06-30T07:32:17.856Z,17.1
2017-06-30T07:33:17.190Z,17.1
2017-06-30T07:34:16.449Z,17.1
2017-06-30T07:35:15.659Z,17
2017-06-30T07:36:14.862Z,17
2017-06-30T07:37:14.067Z,17
2017-06-30T07:38:13.166Z,17
2017-06-30T07:39:13.132Z,17
2017-06-30T07:40:11.844Z,17
2017-06-30T07:41:11.565Z,17
2017-06-30T07:42:10.774Z,17
2017-06-30T07:43:09.975Z,17
2017-06-30T07:44:09.186Z,17
2017-06-30T07:45:08.636Z,17
2017-06-30T07:46:07.843Z,17
2017-06-30T07:47:06.698Z,17
2017-06-30T07:48:06.292Z,17
2017-06-30T07:49:05.495Z,17
2017-06-30T07:50:04.788Z,17
2017-06-30T07:51:04.611Z,17
2017-06-30T07:52:03.824Z,17
2017-06-30T07:54:01.922Z,17
2017-06-30T07:55:01.618Z,17
2017-06-30T07:56:00.588Z,17
2017-06-30T07:57:00.118Z,17
2017-06-30T07:57:59.087Z,16.8
2017-06-30T07:58:58.799Z,16.8
2017-06-30T07:59:58.007Z,16.8
2017-06-30T08:00:57.249Z,16.8
2017-06-30T08:01:57.015Z,16.9
2017-06-30T08:02:55.978Z,16.9
2017-06-30T08:03:55.188Z,17
2017-06-30T08:04:26.274Z,17
2017-06-30T08:04:56.285Z,17
2017-06-30T08:05:54.048Z,16.9
2017-06-30T08:06:52.760Z,16.9
2017-06-30T08:07:52.476Z,17
2017-06-30T08:08:51.950Z,17
2017-06-30T08:09:51.663Z,17
2017-06-30T08:10:50.307Z,17
2017-06-30T08:11:49.514Z,17
2017-06-30T08:12:48.718Z,17
2017-06-30T08:13:47.935Z,17
2017-06-30T08:14:47.958Z,17
2017-06-30T08:15:47.245Z,17
2017-06-30T08:16:45.956Z,17
2017-06-30T08:17:45.166Z,17
2017-06-30T08:18:44.374Z,17
2017-06-30T08:19:43.651Z,17
2017-06-30T08:20:43.115Z,17
2017-06-30T08:21:42.313Z,17
2017-06-30T08:22:41.933Z,17
2017-06-30T08:23:41.145Z,17
2017-06-30T08:24:40.221Z,17
2017-06-30T08:25:39.190Z,17
2017-06-30T08:26:39.147Z,17
2017-06-30T08:27:38.347Z,17
2017-06-30T08:28:37.561Z,17
2017-06-30T08:29:36.831Z,17
2017-06-30T08:30:36.035Z,17
2017-06-30T08:31:35.250Z,17
2017-06-30T08:32:34.717Z,17
2017-06-30T08:33:34.485Z,17
2017-06-30T08:34:33.753Z,17
2017-06-30T08:36:31.619Z,17.1
2017-06-30T08:37:31.345Z,17.1
2017-06-30T08:38:30.569Z,17.1
2017-06-30T08:39:29.654Z,17.1
2017-06-30T08:40:28.863Z,17.1
2017-06-30T08:41:27.847Z,17.2
2017-06-30T08:42:27.565Z,17.2
2017-06-30T08:43:26.827Z,17.2
2017-06-30T08:44:26.181Z,17.3
2017-06-30T08:45:25.264Z,17.3
2017-06-30T08:46:24.846Z,17.4
2017-06-30T08:47:24.046Z,17.4
2017-06-30T08:48:23.258Z,17.4
2017-06-30T08:49:22.499Z,17.6
2017-06-30T08:50:22.457Z,17.6
2017-06-30T08:51:21.232Z,17.6
2017-06-30T08:52:20.444Z,17.6
2017-06-30T08:53:20.714Z,17.8
2017-06-30T08:54:19.299Z,17.8
2017-06-30T08:55:18.514Z,18
2017-06-30T08:56:17.857Z,18
2017-06-30T08:57:16.865Z,18.1
2017-06-30T08:58:17.036Z,18.1
2017-06-30T08:59:15.735Z,18.1
2017-06-30T08:59:46.255Z,18.1
2017-06-30T09:00:16.786Z,18.1
2017-06-30T09:00:47.075Z,18.1
2017-06-30T09:02:13.723Z,18.1
2017-06-30T09:03:12.824Z,18
2017-06-30T09:04:12.540Z,18
2017-06-30T09:05:11.748Z,18
2017-06-30T09:06:11.577Z,18
2017-06-30T09:07:10.277Z,18
2017-06-30T09:08:09.746Z,18
2017-06-30T09:09:08.962Z,18.1
2017-06-30T09:10:08.173Z,18.1
2017-06-30T09:11:07.254Z,18
2017-06-30T09:12:07.300Z,18
2017-06-30T09:13:06.211Z,17.9
2017-06-30T09:14:05.549Z,18
2017-06-30T09:15:05.404Z,18
2017-06-30T09:16:04.002Z,18
2017-06-30T09:17:03.053Z,18
2017-06-30T09:18:02.542Z,18
2017-06-30T09:19:01.739Z,18.1
2017-06-30T09:20:01.710Z,18.1
2017-06-30T09:21:00.427Z,18.1
2017-06-30T09:22:00.026Z,18.1
2017-06-30T09:22:59.453Z,18.1
2017-06-30T09:24:58.064Z,18.1
2017-06-30T09:25:57.521Z,18.1
2017-06-30T09:26:56.728Z,18.1
2017-06-30T09:27:55.821Z,18.1
2017-06-30T09:28:55.045Z,18
2017-06-30T09:29:54.812Z,18
2017-06-30T09:30:53.514Z,18
2017-06-30T09:31:53.393Z,17.9
2017-06-30T09:32:52.482Z,17.8
2017-06-30T09:33:51.702Z,17.8
2017-06-30T09:34:51.365Z,17.8
2017-06-30T09:35:50.446Z,17.8
2017-06-30T09:36:49.529Z,17.7
2017-06-30T09:37:49.838Z,17.6
2017-06-30T09:38:47.927Z,17.7
2017-06-30T09:39:47.634Z,17.7
2017-06-30T09:40:18.031Z,17.7
2017-06-30T09:41:46.433Z,17.6
2017-06-30T09:42:45.647Z,17.7
2017-06-30T09:43:45.108Z,17.8
2017-06-30T09:45:43.698Z,17.6
2017-06-30T09:46:42.792Z,17.7
2017-06-30T09:47:41.994Z,17.7
2017-06-30T09:48:41.203Z,17.8
2017-06-30T09:49:41.098Z,17.8
2017-06-30T09:50:39.800Z,17.8
2017-06-30T09:51:39.510Z,17.8
2017-06-30T09:52:38.703Z,17.9
2017-06-30T09:53:37.927Z,17.9
2017-06-30T09:54:37.131Z,17.9
2017-06-30T09:55:36.532Z,17.9
2017-06-30T09:56:35.614Z,17.9
2017-06-30T09:57:35.270Z,18
2017-06-30T09:59:33.739Z,18
2017-06-30T10:00:33.206Z,18
2017-06-30T10:01:32.718Z,17.9
2017-06-30T10:02:32.498Z,17.9
2017-06-30T10:03:31.217Z,18
2017-06-30T10:04:31.022Z,17.9
2017-06-30T10:05:29.716Z,17.9
2017-06-30T10:06:28.827Z,17.8
2017-06-30T10:07:28.802Z,17.8
2017-06-30T10:08:27.511Z,17.8
2017-06-30T10:09:27.226Z,17.8
2017-06-30T10:10:26.431Z,17.8
2017-06-30T10:11:25.900Z,17.7
2017-06-30T10:12:24.873Z,17.7
2017-06-30T10:13:24.342Z,17.7
2017-06-30T10:14:23.800Z,17.8
2017-06-30T10:15:23.003Z,17.8
2017-06-30T10:16:22.208Z,17.8
2017-06-30T10:17:21.407Z,17.8
2017-06-30T10:19:20.267Z,17.8
2017-06-30T10:20:19.349Z,17.8
2017-06-30T10:21:18.820Z,17.9
2017-06-30T10:22:18.283Z,17.9
2017-06-30T10:24:16.880Z,17.9
2017-06-30T10:25:16.346Z,17.9
2017-06-30T10:26:15.548Z,17.9
2017-06-30T10:27:14.771Z,18.1
2017-06-30T10:28:13.995Z,18.1
2017-06-30T10:29:13.209Z,18.3
2017-06-30T10:30:12.925Z,18.5
2017-06-30T10:31:12.397Z,18.5
2017-06-30T10:32:11.113Z,18.5
2017-06-30T10:33:10.832Z,18.6
2017-06-30T10:34:09.563Z,18.6
2017-06-30T10:35:09.258Z,18.6
2017-06-30T10:36:08.479Z,18.9
2017-06-30T10:37:08.431Z,19
2017-06-30T10:38:07.005Z,19
2017-06-30T10:39:06.589Z,19
2017-06-30T10:40:05.675Z,18.9
2017-06-30T10:41:05.272Z,18.9
2017-06-30T10:42:04.359Z,19
2017-06-30T10:43:04.312Z,18.9
2017-06-30T10:44:03.507Z,19
2017-06-30T10:45:02.602Z,19
2017-06-30T10:46:02.641Z,19
2017-06-30T10:47:01.357Z,19.1
2017-06-30T10:48:00.580Z,19.2
2017-06-30T10:49:00.042Z,19.3
2017-06-30T10:49:59.128Z,19.3
2017-06-30T10:50:58.840Z,19.3
2017-06-30T10:51:57.936Z,19.3
2017-06-30T10:52:57.550Z,19.3
2017-06-30T10:53:56.638Z,19.4
2017-06-30T10:54:56.103Z,19.5
2017-06-30T10:55:55.186Z,19.5
2017-06-30T10:56:54.897Z,19.4
2017-06-30T10:57:54.102Z,19.5
2017-06-30T10:58:53.311Z,19.5
2017-06-30T10:59:52.794Z,19.5
2017-06-30T11:01:51.646Z,19.6
2017-06-30T11:02:50.729Z,19.6
2017-06-30T11:03:49.703Z,19.5
2017-06-30T11:04:49.695Z,19.6
2017-06-30T11:05:48.913Z,19.7
2017-06-30T11:06:48.011Z,19.7
2017-06-30T11:07:47.978Z,19.8
2017-06-30T11:08:46.682Z,19.8
2017-06-30T11:10:45.781Z,19.8
2017-06-30T11:11:44.987Z,19.7
2017-06-30T11:12:44.204Z,19.6
2017-06-30T11:13:43.601Z,19.6
2017-06-30T11:14:42.687Z,19.6
2017-06-30T11:15:42.161Z,19.5
2017-06-30T11:16:41.745Z,19.5
2017-06-30T11:17:40.952Z,19.3
2017-06-30T11:18:40.315Z,19.3
2017-06-30T11:19:11.477Z,19.3
2017-06-30T11:20:39.364Z,19.4
2017-06-30T11:21:38.476Z,19.5
2017-06-30T11:22:37.717Z,19.4
2017-06-30T11:23:37.433Z,19.4
2017-06-30T11:24:36.898Z,19.4
2017-06-30T11:25:36.094Z,19.3
2017-06-30T11:26:35.311Z,19.3
2017-06-30T11:27:34.507Z,19.3
2017-06-30T11:28:34.782Z,19.3
2017-06-30T11:29:33.492Z,19.4
2017-06-30T11:30:32.966Z,19.5
2017-06-30T11:31:32.176Z,19.5
2017-06-30T11:32:31.275Z,19.5
2017-06-30T11:33:30.860Z,19.6
2017-06-30T11:34:30.081Z,19.6
2017-06-30T11:35:29.857Z,19.6
2017-06-30T11:36:28.837Z,19.6
2017-06-30T11:37:27.923Z,19.6
2017-06-30T11:38:27.515Z,19.7
2017-06-30T11:39:27.292Z,19.7
2017-06-30T11:40:26.384Z,19.7
2017-06-30T11:41:25.467Z,19.6
2017-06-30T11:42:25.428Z,19.6
2017-06-30T11:43:24.044Z,19.6
2017-06-30T11:44:23.759Z,19.6
2017-06-30T11:45:22.975Z,19.6
2017-06-30T11:46:22.060Z,19.6
2017-06-30T11:47:21.767Z,19.6
2017-06-30T11:48:21.232Z,19.5
2017-06-30T11:49:20.331Z,19.5
2017-06-30T11:50:19.964Z,19.5
2017-06-30T11:51:19.189Z,19.5
2017-06-30T11:52:18.955Z,19.5
2017-06-30T11:53:18.039Z,19.3
2017-06-30T11:54:17.490Z,19.4
2017-06-30T11:55:16.703Z,19.4
2017-06-30T11:56:15.906Z,19.5
2017-06-30T11:57:15.101Z,19.4
2017-06-30T11:58:14.689Z,19.4
2017-06-30T11:59:13.582Z,19.3
2017-06-30T12:00:13.318Z,19.3
2017-06-30T12:01:13.024Z,19.4
2017-06-30T12:01:43.541Z,19.4
2017-06-30T12:03:11.384Z,19.5
2017-06-30T12:05:09.984Z,19.5
2017-06-30T12:06:09.720Z,19.5
2017-06-30T12:07:08.814Z,19.5
2017-06-30T12:08:09.117Z,19.5
2017-06-30T12:09:07.697Z,19.6
2017-06-30T12:10:06.905Z,19.6
2017-06-30T12:11:06.557Z,19.7
2017-06-30T12:12:06.216Z,19.8
2017-06-30T12:13:04.913Z,19.7
2017-06-30T12:14:05.078Z,19.6
2017-06-30T12:15:03.662Z,19.8
2017-06-30T12:16:03.365Z,19.8
2017-06-30T12:17:02.580Z,19.9
2017-06-30T12:18:01.915Z,20
2017-06-30T12:19:01.697Z,20
2017-06-30T12:20:00.401Z,20
2017-06-30T12:21:00.110Z,19.9
2017-06-30T12:21:59.323Z,19.9
2017-06-30T12:22:58.522Z,19.8
2017-06-30T12:24:57.799Z,20
2017-06-30T12:25:56.506Z,20
2017-06-30T12:26:56.213Z,20
2017-06-30T12:27:55.298Z,20
2017-06-30T12:30:54.046Z,20.1
2017-06-30T12:31:53.309Z,20.1
2017-06-30T12:32:52.514Z,20.1
2017-06-30T12:33:51.744Z,20.1
2017-06-30T12:34:51.024Z,20.1
2017-06-30T12:35:50.240Z,20.1
2017-06-30T12:36:50.207Z,20.3
2017-06-30T12:37:49.427Z,20.2
2017-06-30T12:38:48.641Z,20.2
2017-06-30T12:39:47.730Z,20.2
2017-06-30T12:40:47.955Z,20.2
2017-06-30T12:41:46.659Z,20.4
2017-06-30T12:42:46.139Z,20.3
2017-06-30T12:43:45.262Z,20.3
2017-06-30T12:44:45.037Z,20.4
2017-06-30T12:45:44.125Z,20.5
2017-06-30T12:46:43.611Z,20.5
2017-06-30T12:47:43.082Z,20.5
2017-06-30T12:48:42.537Z,20.4
2017-06-30T12:49:41.787Z,20.3
2017-06-30T12:50:41.389Z,20.5
2017-06-30T12:51:40.478Z,20.5
2017-06-30T12:52:39.568Z,20.4
2017-06-30T12:53:39.279Z,20.5
2017-06-30T12:54:38.727Z,20.5
2017-06-30T12:55:37.914Z,20.4
2017-06-30T12:56:37.699Z,20.5
2017-06-30T12:57:36.902Z,20.5
2017-06-30T12:58:36.117Z,20.5
2017-06-30T12:59:35.589Z,20.5
2017-06-30T13:00:36.604Z,20.4
2017-06-30T13:01:34.184Z,20.5
2017-06-30T13:02:33.896Z,20.3
2017-06-30T13:03:33.100Z,20.5
2017-06-30T13:04:32.306Z,20.4
2017-06-30T13:05:31.654Z,20.4
2017-06-30T13:06:31.493Z,20.3
2017-06-30T13:07:30.697Z,20.3
2017-06-30T13:08:29.910Z,20.3
2017-06-30T13:09:29.537Z,20.3
2017-06-30T13:10:29.307Z,20.3
2017-06-30T13:11:28.018Z,20.3
2017-06-30T13:11:58.789Z,20.3
2017-06-30T13:12:29.094Z,20.3
2017-06-30T13:12:59.668Z,20.3
2017-06-30T13:16:25.349Z,20.5
2017-06-30T13:17:24.811Z,20.6
2017-06-30T13:18:23.901Z,20.6
2017-06-30T13:19:23.105Z,20.6
2017-06-30T13:20:22.708Z,20.6
2017-06-30T13:21:21.982Z,20.6
2017-06-30T13:22:21.698Z,20.6
2017-06-30T13:23:21.032Z,20.6
2017-06-30T13:24:20.251Z,20.6
2017-06-30T13:25:19.455Z,20.5
2017-06-30T13:26:19.051Z,20.4
2017-06-30T13:27:18.652Z,20.5
2017-06-30T13:28:18.470Z,20.5
2017-06-30T13:29:17.466Z,20.5
2017-06-30T13:30:16.668Z,20.5
2017-06-30T13:31:15.763Z,20.5
2017-06-30T13:32:15.358Z,20.5
2017-06-30T13:33:15.064Z,20.5
2017-06-30T13:34:14.266Z,20.5
2017-06-30T13:35:14.189Z,20.3
2017-06-30T13:36:12.769Z,20.4
2017-06-30T13:37:12.472Z,20.4